createdAt,value
2022-10-08T00:01:10.690Z,3.10
2022-10-08T00:03:40.905Z,3.87
2022-10-08T00:06:08.903Z,3.53
2022-10-08T00:08:37.587Z,3.20
2022-10-08T00:11:09.710Z,3.30
2022-10-08T00:13:42.616Z,3.27
2022-10-08T00:16:23.247Z,3.70
2022-10-08T00:18:51.994Z,2.90
2022-10-08T00:21:25.083Z,3.40
2022-10-08T00:23:53.185Z,3.07
2022-10-08T00:26:24.359Z,3.47
2022-10-08T00:28:53.875Z,3.87
2022-10-08T00:31:29.588Z,4.37
2022-10-08T00:33:57.933Z,4.50
2022-10-08T00:36:26.515Z,4.30
2022-10-08T00:39:01.158Z,4.20
2022-10-08T00:41:30.363Z,3.83
2022-10-08T00:43:59.479Z,3.83
2022-10-08T00:46:30.990Z,3.77
2022-10-08T00:49:11.641Z,4.30
2022-10-08T00:51:49.839Z,3.77
2022-10-08T00:54:19.405Z,3.97
2022-10-08T00:56:51.248Z,3.13
2022-10-08T00:59:18.120Z,3.97
2022-10-08T01:01:44.884Z,3.50
2022-10-08T01:04:13.704Z,3.53
2022-10-08T01:06:40.235Z,4.23
2022-10-08T01:09:18.827Z,3.67
2022-10-08T01:12:06.031Z,3.40
2022-10-08T01:14:47.576Z,3.40
2022-10-08T01:17:23.257Z,3.27
2022-10-08T01:20:01.284Z,3.27
2022-10-08T01:22:29.897Z,3.73
2022-10-08T01:25:37.758Z,4.03
2022-10-08T01:28:17.813Z,4.03
2022-10-08T01:31:07.056Z,3.50
2022-10-08T01:33:43.057Z,3.27
2022-10-08T01:36:13.131Z,3.60
2022-10-08T01:38:44.902Z,2.80
2022-10-08T01:41:13.700Z,3.30
2022-10-08T01:43:46.239Z,3.10
2022-10-08T01:46:32.799Z,3.80
2022-10-08T01:49:07.546Z,3.07
2022-10-08T01:51:42.221Z,3.23
2022-10-08T01:54:13.721Z,3.40
2022-10-08T01:56:43.345Z,3.27
2022-10-08T01:59:19.186Z,3.00
2022-10-08T02:02:06.829Z,3.13
2022-10-08T02:04:33.868Z,3.57
2022-10-08T02:07:08.363Z,2.77
2022-10-08T02:09:41.362Z,3.40
2022-10-08T02:12:09.446Z,3.27
2022-10-08T02:14:40.253Z,3.00
2022-10-08T02:17:52.220Z,3.33
2022-10-08T02:20:21.322Z,2.93
2022-10-08T02:23:14.147Z,3.57
2022-10-08T02:25:49.412Z,3.40
2022-10-08T02:28:16.043Z,3.40
2022-10-08T02:31:10.623Z,3.10
2022-10-08T02:33:44.499Z,2.97
2022-10-08T02:36:14.768Z,2.87
2022-10-08T02:38:54.539Z,3.17
2022-10-08T02:41:28.755Z,2.90
2022-10-08T02:43:59.686Z,2.93
2022-10-08T02:46:30.276Z,2.63
2022-10-08T02:49:03.067Z,2.73
2022-10-08T02:51:32.035Z,2.97
2022-10-08T02:53:59.562Z,2.93
2022-10-08T02:56:38.933Z,2.73
2022-10-08T02:59:06.297Z,2.87
2022-10-08T03:01:44.190Z,3.03
2022-10-08T03:04:28.574Z,2.93
2022-10-08T03:06:57.314Z,3.50
2022-10-08T03:09:26.206Z,3.13
2022-10-08T03:11:53.947Z,3.40
2022-10-08T03:14:22.438Z,4.03
2022-10-08T03:16:49.249Z,3.27
2022-10-08T03:19:18.010Z,3.63
2022-10-08T03:21:47.176Z,3.40
2022-10-08T03:24:15.464Z,3.63
2022-10-08T03:26:42.701Z,3.67
2022-10-08T03:29:09.462Z,3.77
2022-10-08T03:31:36.590Z,3.93
2022-10-08T03:34:03.528Z,3.17
2022-10-08T03:36:30.219Z,3.90
2022-10-08T03:38:57.570Z,4.20
2022-10-08T03:41:24.181Z,3.60
2022-10-08T03:43:50.800Z,3.50
2022-10-08T03:46:17.703Z,3.30
2022-10-08T03:48:49.200Z,3.30
2022-10-08T03:51:16.948Z,3.30
2022-10-08T03:53:44.633Z,3.33
2022-10-08T03:56:17.614Z,3.57
2022-10-08T03:58:44.374Z,3.53
2022-10-08T04:01:14.825Z,3.80
2022-10-08T04:03:41.822Z,3.70
2022-10-08T04:06:09.055Z,4.07
2022-10-08T04:08:44.513Z,3.77
2022-10-08T04:14:03.336Z,3.73
2022-10-08T04:16:30.011Z,4.00
2022-10-08T04:18:56.852Z,3.77
2022-10-08T04:21:23.492Z,4.00
2022-10-08T04:23:50.254Z,3.33
2022-10-08T04:26:17.453Z,3.20
2022-10-08T04:28:45.136Z,3.20
2022-10-08T04:31:23.371Z,3.80
2022-10-08T04:33:51.723Z,3.70
2022-10-08T04:36:21.165Z,3.37
2022-10-08T04:38:48.314Z,3.70
2022-10-08T04:41:18.858Z,4.40
2022-10-08T04:43:46.574Z,3.90
2022-10-08T04:46:15.606Z,3.53
2022-10-08T04:48:47.500Z,3.33
2022-10-08T04:51:16.917Z,4.20
2022-10-08T04:53:44.123Z,3.43
2022-10-08T04:56:20.116Z,4.07
2022-10-08T04:58:47.487Z,4.17
2022-10-08T05:01:17.495Z,4.53
2022-10-08T05:03:47.616Z,3.90
2022-10-08T05:06:16.560Z,4.20
2022-10-08T05:08:44.430Z,4.20
2022-10-08T05:11:11.968Z,3.90
2022-10-08T05:13:38.964Z,4.10
2022-10-08T05:16:11.505Z,4.47
2022-10-08T05:18:39.835Z,4.20
2022-10-08T05:21:14.604Z,3.73
2022-10-08T05:23:44.877Z,5.10
2022-10-08T05:26:46.225Z,4.30
2022-10-08T05:29:11.743Z,3.87
2022-10-08T05:31:38.872Z,4.13
2022-10-08T05:34:05.896Z,5.10
2022-10-08T05:36:34.535Z,5.33
2022-10-08T05:39:03.443Z,4.90
2022-10-08T05:41:32.382Z,4.47
2022-10-08T05:44:02.007Z,4.50
2022-10-08T05:46:31.162Z,4.67
2022-10-08T05:49:00.779Z,4.93
2022-10-08T05:51:28.371Z,5.30
2022-10-08T05:53:59.560Z,5.57
2022-10-08T05:56:27.476Z,5.17
2022-10-08T05:58:54.862Z,5.30
2022-10-08T06:01:24.446Z,5.70
2022-10-08T06:03:52.854Z,5.40
2022-10-08T06:06:20.446Z,4.93
2022-10-08T06:08:47.485Z,5.13
2022-10-08T06:11:14.282Z,4.57
2022-10-08T06:13:40.920Z,4.73
2022-10-08T06:16:10.207Z,4.20
2022-10-08T06:18:40.038Z,5.30
2022-10-08T06:21:09.137Z,4.47
2022-10-08T06:23:36.433Z,4.83
2022-10-08T06:26:09.627Z,5.07
2022-10-08T06:28:38.077Z,5.80
2022-10-08T06:31:06.148Z,5.53
2022-10-08T06:33:33.440Z,6.10
2022-10-08T06:36:19.342Z,5.23
2022-10-08T06:38:53.769Z,5.67
2022-10-08T06:41:20.991Z,5.17
2022-10-08T06:43:47.882Z,6.33
2022-10-08T06:46:16.168Z,6.53
2022-10-08T06:48:43.151Z,6.70
2022-10-08T06:51:15.179Z,6.70
2022-10-08T06:53:43.187Z,6.27
2022-10-08T06:56:14.523Z,6.13
2022-10-08T06:58:42.500Z,6.73
2022-10-08T07:01:16.953Z,7.00
2022-10-08T07:03:44.029Z,6.87
2022-10-08T07:06:12.603Z,7.03
2022-10-08T07:08:39.596Z,6.07
2022-10-08T07:11:07.036Z,6.93
2022-10-08T07:13:34.505Z,6.67
2022-10-08T07:16:11.597Z,6.63
2022-10-08T07:18:39.744Z,6.23
2022-10-08T07:21:08.145Z,6.60
2022-10-08T07:23:34.973Z,5.83
2022-10-08T07:26:19.011Z,7.67
2022-10-08T07:28:51.740Z,7.30
2022-10-08T07:31:20.640Z,8.47
2022-10-08T07:33:47.894Z,6.83
2022-10-08T07:36:18.056Z,7.40
2022-10-08T07:38:45.358Z,7.30
2022-10-08T07:41:13.019Z,7.10
2022-10-08T07:43:41.358Z,7.17
2022-10-08T07:46:12.287Z,7.30
2022-10-08T07:48:39.457Z,6.97
2022-10-08T07:51:09.950Z,6.53
2022-10-08T07:53:37.081Z,6.93
2022-10-08T07:56:05.394Z,6.67
2022-10-08T07:58:32.314Z,6.67
2022-10-08T08:01:00.807Z,6.70
2022-10-08T08:03:27.469Z,7.37
2022-10-08T08:05:54.482Z,7.67
2022-10-08T08:08:25.412Z,7.73
2022-10-08T08:10:59.907Z,8.37
2022-10-08T08:13:30.749Z,7.57
2022-10-08T08:16:02.328Z,7.20
2022-10-08T08:18:30.860Z,7.80
2022-10-08T08:20:59.213Z,8.03
2022-10-08T08:23:30.488Z,6.70
2022-10-08T08:26:01.060Z,7.23
2022-10-08T08:28:28.836Z,7.97
2022-10-08T08:31:06.623Z,7.80
2022-10-08T08:33:33.184Z,7.57
2022-10-08T08:35:59.773Z,7.53
2022-10-08T08:38:26.329Z,6.77
2022-10-08T08:40:57.124Z,5.77
2022-10-08T08:43:25.330Z,5.70
2022-10-08T08:45:52.008Z,5.57
2022-10-08T08:48:18.583Z,5.63
2022-10-08T08:50:48.908Z,5.47
2022-10-08T08:53:15.878Z,4.97
2022-10-08T08:55:45.603Z,5.80
2022-10-08T08:58:36.875Z,5.53
2022-10-08T09:01:09.160Z,4.83
2022-10-08T09:03:44.035Z,4.83
2022-10-08T09:06:14.572Z,3.93
2022-10-08T09:08:46.902Z,4.03
2022-10-08T09:11:18.563Z,4.33
2022-10-08T09:13:50.726Z,3.63
2022-10-08T09:16:18.257Z,3.70
2022-10-08T09:18:50.040Z,3.20
2022-10-08T09:21:17.546Z,4.17
2022-10-08T09:23:44.768Z,4.40
2022-10-08T09:26:19.742Z,3.90
2022-10-08T09:28:55.583Z,3.73
2022-10-08T09:31:30.189Z,3.80
2022-10-08T09:34:05.742Z,3.13
2022-10-08T09:36:40.655Z,3.77
2022-10-08T09:39:19.110Z,3.80
2022-10-08T09:41:47.418Z,3.20
2022-10-08T09:44:21.446Z,3.77
2022-10-08T09:46:53.796Z,3.27
2022-10-08T09:49:31.088Z,3.77
2022-10-08T09:52:02.059Z,4.07
2022-10-08T09:54:34.409Z,4.37
2022-10-08T09:57:01.935Z,4.03
2022-10-08T09:59:32.866Z,4.37
2022-10-08T10:01:59.575Z,3.87
2022-10-08T10:04:38.489Z,4.10
2022-10-08T10:07:06.027Z,3.77
2022-10-08T10:09:44.879Z,3.60
2022-10-08T10:12:29.816Z,4.00
2022-10-08T10:15:11.081Z,3.97
2022-10-08T10:18:02.370Z,4.23
2022-10-08T10:20:46.322Z,3.53
2022-10-08T10:23:25.687Z,3.70
2022-10-08T10:25:57.495Z,3.40
2022-10-08T10:28:41.425Z,4.20
2022-10-08T10:31:18.222Z,3.03
2022-10-08T10:34:01.739Z,3.40
2022-10-08T10:36:49.370Z,4.27
2022-10-08T10:39:42.711Z,3.63
2022-10-08T10:42:43.362Z,3.47
2022-10-08T10:45:23.465Z,3.60
2022-10-08T10:47:53.307Z,3.97
2022-10-08T10:50:29.845Z,3.37
2022-10-08T10:53:20.893Z,3.80
2022-10-08T10:56:04.098Z,3.60
2022-10-08T10:59:04.128Z,3.43
2022-10-08T11:01:49.349Z,3.60
2022-10-08T11:04:41.099Z,3.40
2022-10-08T11:07:13.763Z,3.47
2022-10-08T11:09:50.816Z,3.50
2022-10-08T11:12:51.059Z,3.27
2022-10-08T11:15:17.680Z,3.40
2022-10-08T11:17:46.914Z,3.33
2022-10-08T11:20:39.486Z,2.97
2022-10-08T11:23:19.604Z,2.70
2022-10-08T11:26:19.071Z,3.03
2022-10-08T11:29:01.073Z,3.00
2022-10-08T11:31:27.691Z,2.83
2022-10-08T11:33:56.407Z,3.47
2022-10-08T11:36:48.596Z,3.33
2022-10-08T11:39:25.814Z,3.10
2022-10-08T11:42:15.408Z,3.10
2022-10-08T11:44:42.205Z,3.10
2022-10-08T11:47:36.736Z,3.10
2022-10-08T11:50:05.650Z,3.00
2022-10-08T11:52:34.242Z,3.20
2022-10-08T11:55:02.155Z,3.37
2022-10-08T11:58:02.932Z,3.90
2022-10-08T12:00:38.158Z,3.43
2022-10-08T12:03:18.625Z,3.20
2022-10-08T12:05:50.936Z,3.10
2022-10-08T12:08:48.650Z,3.00
2022-10-08T12:11:37.528Z,3.40
2022-10-08T12:14:13.405Z,3.27
2022-10-08T12:16:49.344Z,3.00
2022-10-08T12:19:34.877Z,3.07
2022-10-08T12:22:03.038Z,3.20
2022-10-08T12:24:38.515Z,3.10
2022-10-08T12:27:17.251Z,3.50
2022-10-08T12:30:16.678Z,3.37
2022-10-08T12:32:43.422Z,3.50
2022-10-08T12:35:38.026Z,3.07
2022-10-08T12:38:07.613Z,3.13
2022-10-08T12:40:40.845Z,2.97
2022-10-08T12:43:32.526Z,3.00
2022-10-08T12:46:20.941Z,2.90
2022-10-08T12:49:26.586Z,2.73
2022-10-08T12:52:15.837Z,2.80
2022-10-08T12:54:57.374Z,3.00
2022-10-08T12:57:37.805Z,3.20
2022-10-08T13:00:09.225Z,2.83
2022-10-08T13:02:43.547Z,2.90
2022-10-08T13:05:34.047Z,2.90
2022-10-08T13:08:20.712Z,3.30
2022-10-08T13:10:47.362Z,3.20
2022-10-08T13:13:35.648Z,2.97
2022-10-08T13:16:04.305Z,3.50
2022-10-08T13:18:33.140Z,3.77
2022-10-08T13:21:02.189Z,3.20
2022-10-08T13:23:40.483Z,3.47
2022-10-08T13:26:43.767Z,3.33
2022-10-08T13:29:28.316Z,3.30
2022-10-08T13:32:05.639Z,3.50
2022-10-08T13:34:43.501Z,3.50
2022-10-08T13:37:21.682Z,2.93
2022-10-08T13:40:13.177Z,3.47
2022-10-08T13:42:42.891Z,3.80
2022-10-08T13:45:24.747Z,3.43
2022-10-08T13:47:51.727Z,3.33
2022-10-08T13:50:20.079Z,3.50
2022-10-08T13:52:53.732Z,3.67
2022-10-08T13:55:32.935Z,3.03
2022-10-08T13:58:04.496Z,3.30
2022-10-08T14:00:33.533Z,3.03
2022-10-08T14:03:00.145Z,3.00
2022-10-08T14:05:32.981Z,3.37
2022-10-08T14:08:04.130Z,3.13
2022-10-08T14:10:31.217Z,3.27
2022-10-08T14:12:57.967Z,3.30
2022-10-08T14:15:24.728Z,3.13
2022-10-08T14:17:53.364Z,4.00
2022-10-08T14:20:20.062Z,4.53
2022-10-08T14:22:46.674Z,4.13
2022-10-08T14:25:19.389Z,4.30
2022-10-08T14:27:47.000Z,4.20
2022-10-08T14:30:15.195Z,4.03
2022-10-08T14:32:42.444Z,3.73
2022-10-08T14:35:09.827Z,4.00
2022-10-08T14:37:37.059Z,4.23
2022-10-08T14:40:06.909Z,4.53
2022-10-08T14:42:33.459Z,4.43
2022-10-08T14:45:01.130Z,4.30
2022-10-08T14:47:27.664Z,4.10
2022-10-08T14:49:54.754Z,4.47
2022-10-08T14:52:21.361Z,4.27
2022-10-08T14:54:47.990Z,5.03
2022-10-08T14:57:14.634Z,4.37
2022-10-08T14:59:41.380Z,4.67
2022-10-08T15:02:12.030Z,4.73
2022-10-08T15:04:39.066Z,4.70
2022-10-08T15:07:06.041Z,4.20
2022-10-08T15:09:32.797Z,5.10
2022-10-08T15:11:59.358Z,5.33
2022-10-08T15:14:25.994Z,4.67
2022-10-08T15:16:52.769Z,6.13
2022-10-08T15:19:23.853Z,6.30
2022-10-08T15:21:50.990Z,5.10
2022-10-08T15:24:17.739Z,4.80
2022-10-08T15:26:44.366Z,5.45
2022-10-08T15:29:11.005Z,4.20
2022-10-08T15:31:37.628Z,4.33
2022-10-08T15:34:04.281Z,4.07
2022-10-08T15:36:37.063Z,3.70
2022-10-08T15:39:13.496Z,4.13
2022-10-08T15:41:42.360Z,4.03
2022-10-08T15:44:19.244Z,3.50
2022-10-08T15:46:47.010Z,3.57
2022-10-08T15:49:13.895Z,3.37
2022-10-08T15:51:40.841Z,2.70
2022-10-08T15:54:08.263Z,3.27
2022-10-08T15:56:35.507Z,3.53
2022-10-08T15:59:02.716Z,3.57
2022-10-08T16:01:29.837Z,3.23
2022-10-08T16:03:58.140Z,3.23
2022-10-08T16:06:33.050Z,3.33
2022-10-08T16:09:08.837Z,3.50
2022-10-08T16:11:35.592Z,3.87
2022-10-08T16:14:06.252Z,3.17
2022-10-08T16:16:33.177Z,2.87
2022-10-08T16:19:02.045Z,3.70
2022-10-08T16:21:30.518Z,3.17
2022-10-08T16:23:57.957Z,4.17
2022-10-08T16:26:25.592Z,4.53
2022-10-08T16:28:57.517Z,4.50
2022-10-08T16:31:26.190Z,5.50
2022-10-08T16:34:01.020Z,6.87
2022-10-08T16:36:29.823Z,6.23
2022-10-08T16:38:56.610Z,9.07
2022-10-08T16:41:25.912Z,7.10
2022-10-08T16:43:57.909Z,7.37
2022-10-08T16:46:30.101Z,6.13
2022-10-08T16:49:02.111Z,6.50
2022-10-08T16:51:31.536Z,5.87
2022-10-08T16:54:00.016Z,5.43
2022-10-08T16:56:29.893Z,5.40
2022-10-08T16:58:58.841Z,5.03
2022-10-08T17:01:26.077Z,5.20
2022-10-08T17:03:53.634Z,4.50
2022-10-08T17:06:22.455Z,5.30
2022-10-08T17:08:50.279Z,5.60
2022-10-08T17:11:17.351Z,5.63
2022-10-08T17:13:49.168Z,4.90
2022-10-08T17:16:18.057Z,5.90
2022-10-08T17:18:45.322Z,4.87
2022-10-08T17:21:13.253Z,5.87
2022-10-08T17:23:40.346Z,5.30
2022-10-08T17:26:11.602Z,3.97
2022-10-08T17:28:41.072Z,3.73
2022-10-08T17:31:10.828Z,4.13
2022-10-08T17:33:37.718Z,5.30
2022-10-08T17:36:16.995Z,4.60
2022-10-08T17:38:45.336Z,5.27
2022-10-08T17:41:29.131Z,4.90
2022-10-08T17:43:56.913Z,5.27
2022-10-08T17:46:26.738Z,4.43
2022-10-08T17:51:58.487Z,4.87
2022-10-08T17:54:25.062Z,4.90
2022-10-08T17:56:54.517Z,5.43
2022-10-08T17:59:24.193Z,5.47
2022-10-08T18:01:51.029Z,4.83
2022-10-08T18:04:19.611Z,5.07
2022-10-08T18:06:47.777Z,4.70
2022-10-08T18:09:18.381Z,4.90
2022-10-08T18:11:47.508Z,4.50
2022-10-08T18:14:14.253Z,4.77
2022-10-08T18:16:44.270Z,4.33
2022-10-08T18:19:13.664Z,4.33
2022-10-08T18:21:40.284Z,3.93
2022-10-08T18:24:06.883Z,3.70
2022-10-08T18:26:39.338Z,3.97
2022-10-08T18:29:09.278Z,4.00
2022-10-08T18:31:38.211Z,3.30
2022-10-08T18:34:08.017Z,3.97
2022-10-08T18:36:37.243Z,3.90
2022-10-08T18:39:27.543Z,3.97
2022-10-08T18:41:57.676Z,3.97
2022-10-08T18:44:25.725Z,4.20
2022-10-08T18:46:52.909Z,3.87
2022-10-08T18:49:28.974Z,4.23
2022-10-08T18:51:56.851Z,4.13
2022-10-08T18:54:24.370Z,3.60
2022-10-08T18:56:50.988Z,3.90
2022-10-08T18:59:17.833Z,4.30
2022-10-08T19:01:47.311Z,4.20
2022-10-08T19:04:20.191Z,4.57
2022-10-08T19:06:48.736Z,4.00
2022-10-08T19:09:24.093Z,4.30
2022-10-08T19:11:53.748Z,3.90
2022-10-08T19:14:29.219Z,3.67
2022-10-08T19:16:55.821Z,4.50
2022-10-08T19:19:25.260Z,4.27
2022-10-08T19:21:54.359Z,3.87
2022-10-08T19:24:23.206Z,4.40
2022-10-08T19:26:51.010Z,4.53
2022-10-08T19:29:29.103Z,4.33
2022-10-08T19:31:56.406Z,3.97
2022-10-08T19:34:24.889Z,4.63
2022-10-08T19:36:52.252Z,4.07
2022-10-08T19:39:24.595Z,4.17
2022-10-08T19:41:51.404Z,4.07
2022-10-08T19:44:18.884Z,3.73
2022-10-08T19:46:45.794Z,3.40
2022-10-08T19:49:12.990Z,3.80
2022-10-08T19:51:40.238Z,3.77
2022-10-08T19:54:07.103Z,4.03
2022-10-08T19:56:33.809Z,3.53
2022-10-08T19:59:00.426Z,3.67
2022-10-08T20:01:30.215Z,3.57
2022-10-08T20:03:58.997Z,3.93
2022-10-08T20:06:28.671Z,3.83
2022-10-08T20:09:10.122Z,3.70
2022-10-08T20:11:43.259Z,4.10
2022-10-08T20:14:10.445Z,3.40
2022-10-08T20:16:39.963Z,4.67
2022-10-08T20:19:12.037Z,4.37
2022-10-08T20:21:38.686Z,4.10
2022-10-08T20:24:06.384Z,4.77
2022-10-08T20:26:38.907Z,4.73
2022-10-08T20:29:08.326Z,4.70
2022-10-08T20:31:37.111Z,4.53
2022-10-08T20:34:11.568Z,4.60
2022-10-08T20:36:38.607Z,3.97
2022-10-08T20:39:05.808Z,4.50
2022-10-08T20:41:32.504Z,4.60
2022-10-08T20:44:02.364Z,4.60
2022-10-08T20:46:29.543Z,4.37
2022-10-08T20:48:56.207Z,4.27
2022-10-08T20:51:25.998Z,4.60
2022-10-08T20:53:57.756Z,3.70
2022-10-08T20:56:25.343Z,4.10
2022-10-08T20:58:52.607Z,4.43
2022-10-08T21:01:21.657Z,4.00
2022-10-08T21:03:48.372Z,4.17
2022-10-08T21:06:23.880Z,4.30
2022-10-08T21:08:53.103Z,4.13
2022-10-08T21:11:22.394Z,4.17
2022-10-08T21:13:49.282Z,4.00
2022-10-08T21:16:19.001Z,4.07
2022-10-08T21:18:50.235Z,4.60
2022-10-08T21:21:17.604Z,3.77
2022-10-08T21:23:44.682Z,4.63
2022-10-08T21:26:17.976Z,5.00
2022-10-08T21:28:46.850Z,4.17
2022-10-08T21:31:14.420Z,4.33
2022-10-08T21:33:46.465Z,3.97
2022-10-08T21:36:22.367Z,4.37
2022-10-08T21:38:49.401Z,5.90
2022-10-08T21:41:17.926Z,5.67
2022-10-08T21:43:56.798Z,6.33
2022-10-08T21:46:26.326Z,5.87
2022-10-08T21:48:55.109Z,4.77
2022-10-08T21:51:22.310Z,4.47
2022-10-08T21:53:52.092Z,4.93
2022-10-08T21:56:22.797Z,4.80
2022-10-08T21:58:52.513Z,4.43
2022-10-08T22:01:27.146Z,4.07
2022-10-08T22:03:55.481Z,3.77
2022-10-08T22:06:22.937Z,3.87
2022-10-08T22:08:49.925Z,3.60
2022-10-08T22:11:16.882Z,4.43
2022-10-08T22:13:43.928Z,4.53
2022-10-08T22:16:12.882Z,3.47
2022-10-08T22:18:39.941Z,4.70
2022-10-08T22:21:10.983Z,4.30
2022-10-08T22:23:37.801Z,3.70
2022-10-08T22:26:11.117Z,4.00
2022-10-08T22:28:39.082Z,3.83
2022-10-08T22:31:07.933Z,4.37
2022-10-08T22:33:35.330Z,3.83
2022-10-08T22:36:07.701Z,4.13
2022-10-08T22:38:36.751Z,3.97
2022-10-08T22:41:12.012Z,3.60
2022-10-08T22:43:40.164Z,4.00
2022-10-08T22:46:10.049Z,4.60
2022-10-08T22:48:37.455Z,3.77
2022-10-08T22:51:07.782Z,4.00
2022-10-08T22:53:35.096Z,3.93
2022-10-08T22:56:10.481Z,3.60
2022-10-08T22:58:37.046Z,3.80
2022-10-08T23:01:08.808Z,3.87
2022-10-08T23:03:36.506Z,4.33
2022-10-08T23:06:04.547Z,3.77
2022-10-08T23:08:31.595Z,3.80
2022-10-08T23:10:58.594Z,3.57
2022-10-08T23:13:25.727Z,3.50
2022-10-08T23:16:06.573Z,3.33
2022-10-08T23:18:36.332Z,3.50
2022-10-08T23:21:09.429Z,3.47
2022-10-08T23:23:36.327Z,3.77
2022-10-08T23:26:05.458Z,3.80
2022-10-08T23:28:34.055Z,3.97
2022-10-08T23:31:08.740Z,3.83
2022-10-08T23:33:38.269Z,3.73
2022-10-08T23:36:19.826Z,3.60
2022-10-08T23:38:46.865Z,3.57
2022-10-08T23:41:13.558Z,3.27
2022-10-08T23:43:43.033Z,3.70
2022-10-08T23:46:12.213Z,3.33
2022-10-08T23:48:39.604Z,3.63
2022-10-08T23:51:07.042Z,3.73
2022-10-08T23:53:34.751Z,3.87
2022-10-08T23:56:01.820Z,3.70
2022-10-08T23:58:28.424Z,3.23
